createdAt,value
2023-09-06T00:02:32.894Z,14.24
2023-09-06T00:07:34.605Z,13.97
2023-09-06T00:12:37.152Z,13.83
2023-09-06T00:17:39.701Z,13.86
2023-09-06T00:22:41.457Z,13.99
2023-09-06T00:27:43.483Z,13.93
2023-09-06T00:32:53.951Z,13.95
2023-09-06T00:37:56.311Z,13.90
2023-09-06T00:43:02.441Z,13.82
2023-09-06T00:48:06.878Z,13.94
2023-09-06T00:53:09.578Z,13.82
2023-09-06T00:58:17.082Z,13.87
2023-09-06T01:03:19.600Z,13.98
2023-09-06T01:08:30.116Z,13.94
2023-09-06T01:13:32.270Z,13.87
2023-09-06T01:18:34.319Z,13.61
2023-09-06T01:23:39.967Z,13.54
2023-09-06T01:28:42.169Z,13.58
2023-09-06T01:33:44.754Z,13.40
2023-09-06T01:38:47.276Z,13.46
2023-09-06T01:43:55.140Z,13.68
2023-09-06T01:48:57.178Z,13.43
2023-09-06T01:53:59.059Z,13.35
2023-09-06T01:59:00.862Z,13.37
2023-09-06T02:04:06.786Z,13.41
2023-09-06T02:09:08.655Z,13.39
2023-09-06T02:14:10.977Z,13.46
2023-09-06T02:19:19.388Z,13.19
2023-09-06T02:24:25.724Z,13.09
2023-09-06T02:29:29.207Z,13.04
2023-09-06T02:34:30.945Z,12.96
2023-09-06T02:39:34.089Z,12.86
2023-09-06T02:44:35.940Z,12.75
2023-09-06T02:49:40.055Z,12.84
2023-09-06T02:54:43.591Z,12.97
2023-09-06T02:59:45.748Z,13.06
2023-09-06T03:04:47.526Z,13.02
2023-09-06T03:09:52.554Z,12.86
2023-09-06T03:14:56.844Z,12.93
2023-09-06T03:20:00.760Z,12.98
2023-09-06T03:25:04.036Z,13.01
2023-09-06T03:30:08.164Z,13.04
2023-09-06T03:35:10.551Z,12.87
2023-09-06T03:40:33.036Z,12.67
2023-09-06T03:45:35.390Z,12.43
2023-09-06T03:50:37.382Z,12.44
2023-09-06T03:55:39.315Z,12.50
2023-09-06T04:00:44.476Z,12.41
2023-09-06T04:05:56.279Z,12.50
2023-09-06T04:10:58.650Z,12.53
2023-09-06T04:16:00.519Z,12.54
2023-09-06T04:21:09.931Z,12.51
2023-09-06T04:26:13.007Z,12.48
2023-09-06T04:31:15.103Z,12.32
2023-09-06T04:36:20.206Z,12.35
2023-09-06T04:41:25.323Z,12.42
2023-09-06T04:46:31.407Z,12.33
2023-09-06T04:51:34.261Z,12.32
2023-09-06T04:56:39.592Z,12.26
2023-09-06T05:01:41.974Z,12.40
2023-09-06T05:06:44.624Z,12.41
2023-09-06T05:11:47.857Z,12.42
2023-09-06T05:16:51.133Z,12.34
2023-09-06T05:21:53.037Z,12.28
2023-09-06T05:26:58.159Z,12.26
2023-09-06T05:32:00.488Z,12.33
2023-09-06T05:37:03.869Z,12.52
2023-09-06T05:42:06.078Z,12.65
2023-09-06T05:47:09.672Z,12.59
2023-09-06T05:52:13.026Z,12.60
2023-09-06T05:57:15.758Z,12.89
2023-09-06T06:02:18.664Z,12.98
2023-09-06T06:07:21.105Z,13.06
2023-09-06T06:12:23.942Z,13.23
2023-09-06T06:17:25.838Z,13.47
2023-09-06T06:22:28.000Z,13.71
2023-09-06T06:27:30.834Z,13.88
2023-09-06T06:32:34.178Z,14.08
2023-09-06T06:37:36.332Z,14.27
2023-09-06T06:42:40.359Z,14.45
2023-09-06T06:47:45.585Z,14.66
2023-09-06T06:52:47.640Z,14.89
2023-09-06T06:57:49.664Z,15.12
2023-09-06T07:02:51.690Z,15.33
2023-09-06T07:07:53.572Z,15.56
2023-09-06T07:12:56.302Z,15.81
2023-09-06T07:17:58.297Z,16.10
2023-09-06T07:23:00.423Z,16.46
2023-09-06T07:28:03.819Z,16.88
2023-09-06T07:33:06.268Z,17.19
2023-09-06T07:38:08.692Z,17.35
2023-09-06T07:43:13.441Z,17.47
2023-09-06T07:48:15.874Z,17.68
2023-09-06T07:53:18.122Z,17.90
2023-09-06T07:58:20.740Z,18.18
2023-09-06T08:03:22.738Z,18.29
2023-09-06T08:08:24.656Z,18.48
2023-09-06T08:13:26.738Z,18.78
2023-09-06T08:18:30.113Z,19.00
2023-09-06T08:23:32.185Z,19.30
2023-09-06T08:28:33.941Z,19.53
2023-09-06T08:33:35.806Z,19.73
2023-09-06T08:38:37.664Z,19.96
2023-09-06T08:43:43.860Z,20.10
2023-09-06T08:48:47.860Z,20.24
2023-09-06T08:53:51.705Z,20.52
2023-09-06T08:58:53.869Z,20.72
2023-09-06T09:03:56.042Z,20.92
2023-09-06T09:09:13.913Z,21.08
2023-09-06T09:14:22.951Z,21.25
2023-09-06T09:19:25.635Z,21.54
2023-09-06T09:24:30.110Z,21.67
2023-09-06T09:29:32.508Z,21.88
2023-09-06T09:34:34.719Z,22.01
2023-09-06T09:39:36.779Z,22.19
2023-09-06T09:44:40.223Z,22.41
2023-09-06T09:49:43.379Z,22.55
2023-09-06T09:54:49.042Z,22.72
2023-09-06T09:59:51.487Z,22.84
2023-09-06T10:04:54.652Z,23.08
2023-09-06T10:09:57.114Z,23.20
2023-09-06T10:14:59.730Z,23.29
2023-09-06T10:20:02.505Z,23.36
2023-09-06T10:25:08.339Z,23.42
2023-09-06T10:30:12.153Z,23.53
2023-09-06T10:35:22.193Z,23.72
2023-09-06T10:47:03.416Z,23.92
2023-09-06T10:52:15.572Z,24.09
2023-09-06T10:52:52.218Z,23.85
2023-09-06T10:57:17.705Z,24.22
2023-09-06T11:02:23.181Z,24.34
2023-09-06T11:07:48.140Z,24.42
2023-09-06T11:12:55.887Z,24.64
2023-09-06T11:18:00.996Z,24.83
2023-09-06T11:23:04.370Z,24.95
2023-09-06T11:28:20.091Z,25.07
2023-09-06T11:33:31.236Z,25.19
2023-09-06T11:38:35.775Z,25.32
2023-09-06T11:43:43.222Z,25.41
2023-09-06T11:48:45.828Z,25.53
2023-09-06T11:53:55.621Z,25.64
2023-09-06T11:59:01.025Z,25.77
2023-09-06T12:04:04.086Z,25.94
2023-09-06T12:09:13.251Z,25.95
2023-09-06T12:14:16.873Z,26.01
2023-09-06T12:19:18.851Z,26.19
2023-09-06T12:24:20.751Z,26.34
2023-09-06T12:29:22.603Z,26.37
2023-09-06T12:34:24.584Z,26.50
2023-09-06T12:39:26.347Z,26.47
2023-09-06T12:44:28.178Z,26.62
2023-09-06T12:49:30.116Z,26.70
2023-09-06T12:54:32.037Z,26.85
2023-09-06T12:59:33.769Z,27.10
2023-09-06T13:04:35.576Z,27.10
2023-09-06T13:09:37.433Z,27.21
2023-09-06T13:14:39.637Z,27.44
2023-09-06T13:19:45.290Z,27.44
2023-09-06T13:24:47.742Z,27.36
2023-09-06T13:29:50.588Z,27.63
2023-09-06T13:34:54.061Z,27.52
2023-09-06T13:39:55.954Z,27.47
2023-09-06T13:44:58.064Z,27.62
2023-09-06T13:49:59.942Z,27.79
2023-09-06T13:55:02.297Z,27.73
2023-09-06T14:00:06.936Z,27.64
2023-09-06T14:05:09.347Z,27.60
2023-09-06T14:10:11.352Z,27.61
2023-09-06T14:15:13.156Z,27.61
2023-09-06T14:20:15.025Z,27.68
2023-09-06T14:25:18.020Z,27.75
2023-09-06T14:30:20.479Z,27.67
2023-09-06T14:35:23.011Z,27.66
2023-09-06T14:40:24.875Z,27.62
2023-09-06T14:45:28.636Z,27.62
2023-09-06T14:50:32.497Z,27.61
2023-09-06T14:55:35.570Z,27.61
2023-09-06T15:00:37.870Z,27.66
2023-09-06T15:05:45.602Z,27.80
2023-09-06T15:10:47.457Z,27.66
2023-09-06T15:15:50.483Z,27.59
2023-09-06T15:20:52.359Z,27.53
2023-09-06T15:25:55.162Z,27.60
2023-09-06T15:30:57.047Z,27.73
2023-09-06T15:36:09.687Z,27.67
2023-09-06T15:41:18.451Z,27.63
2023-09-06T15:46:20.291Z,27.69
2023-09-06T15:51:25.090Z,27.54
2023-09-06T15:56:27.079Z,27.51
2023-09-06T16:01:31.752Z,27.51
2023-09-06T16:06:34.024Z,27.56
2023-09-06T16:11:36.496Z,27.68
2023-09-06T16:16:38.779Z,27.56
2023-09-06T16:21:40.589Z,27.53
2023-09-06T16:26:42.557Z,27.30
2023-09-06T16:31:44.303Z,27.13
2023-09-06T16:36:46.077Z,26.83
2023-09-06T16:41:47.837Z,26.56
2023-09-06T16:46:49.938Z,26.23
2023-09-06T16:51:52.571Z,25.67
2023-09-06T16:56:55.098Z,25.29
2023-09-06T17:01:57.496Z,24.98
2023-09-06T17:06:59.237Z,24.69
2023-09-06T17:12:01.128Z,24.40
2023-09-06T17:17:02.913Z,23.99
2023-09-06T17:22:05.004Z,23.69
2023-09-06T17:27:09.471Z,23.44
2023-09-06T17:32:11.489Z,23.32
2023-09-06T17:37:13.366Z,23.04
2023-09-06T17:42:15.256Z,22.88
2023-09-06T17:47:17.160Z,22.40
2023-09-06T17:52:18.939Z,22.27
2023-09-06T17:57:20.682Z,22.42
2023-09-06T18:02:22.806Z,22.45
2023-09-06T18:07:25.046Z,22.27
2023-09-06T18:12:27.109Z,22.21
2023-09-06T18:17:28.963Z,22.24
2023-09-06T18:22:31.029Z,22.27
2023-09-06T18:27:33.403Z,22.14
2023-09-06T18:32:36.033Z,22.05
2023-09-06T18:37:39.086Z,21.91
2023-09-06T18:42:42.044Z,21.81
2023-09-06T18:47:45.988Z,21.73
2023-09-06T18:52:49.217Z,21.54
2023-09-06T18:58:04.845Z,21.48
2023-09-06T19:03:13.366Z,21.43
2023-09-06T19:08:26.257Z,21.25
2023-09-06T19:13:28.117Z,21.06
2023-09-06T19:18:30.134Z,21.14
2023-09-06T19:23:32.723Z,21.12
2023-09-06T19:28:34.677Z,21.19
2023-09-06T19:33:38.350Z,21.18
2023-09-06T19:38:40.659Z,21.13
2023-09-06T19:43:42.353Z,21.09
2023-09-06T19:49:03.413Z,21.13
2023-09-06T19:54:06.185Z,20.93
2023-09-06T19:59:07.936Z,20.94
2023-09-06T20:04:09.974Z,20.85
2023-09-06T20:09:13.947Z,20.18
2023-09-06T20:14:15.741Z,20.01
2023-09-06T20:19:17.707Z,20.07
2023-09-06T20:24:19.487Z,20.19
2023-09-06T20:29:27.677Z,20.24
2023-09-06T20:34:29.500Z,20.23
2023-09-06T20:39:31.354Z,20.22
2023-09-06T20:44:33.542Z,20.23
2023-09-06T20:49:35.629Z,20.32
2023-09-06T20:54:37.584Z,20.21
2023-09-06T20:59:39.447Z,20.21
2023-09-06T21:04:41.290Z,20.10
2023-09-06T21:09:43.125Z,20.10
2023-09-06T21:14:45.069Z,20.09
2023-09-06T21:19:50.226Z,19.83
2023-09-06T21:24:52.409Z,19.82
2023-09-06T21:29:54.264Z,19.97
2023-09-06T21:34:56.121Z,19.84
2023-09-06T21:40:00.417Z,19.66
2023-09-06T21:45:02.315Z,19.74
2023-09-06T21:50:04.511Z,19.82
2023-09-06T21:55:06.692Z,19.88
2023-09-06T22:00:11.995Z,19.76
2023-09-06T22:05:33.291Z,19.56
2023-09-06T22:10:54.229Z,19.53
2023-09-06T22:16:14.862Z,19.63
2023-09-06T22:21:16.684Z,19.70
2023-09-06T22:26:18.459Z,19.64
2023-09-06T22:31:22.923Z,19.66
2023-09-06T22:36:25.979Z,19.65
2023-09-06T22:41:27.896Z,19.61
2023-09-06T22:46:30.451Z,19.59
2023-09-06T22:51:32.289Z,19.52
2023-09-06T22:56:35.824Z,19.40
2023-09-06T23:01:37.671Z,19.38
2023-09-06T23:06:40.158Z,19.40
2023-09-06T23:11:47.818Z,19.33
2023-09-06T23:16:49.825Z,19.27
2023-09-06T23:21:56.197Z,19.06
2023-09-06T23:27:00.452Z,18.89
2023-09-06T23:32:06.127Z,18.63
2023-09-06T23:37:08.919Z,18.64
2023-09-06T23:42:11.312Z,18.73
2023-09-06T23:47:16.838Z,18.81
2023-09-06T23:52:18.690Z,18.81
2023-09-06T23:57:20.648Z,18.75
